This is the latest recevied weather packets stored in our database for station/object TA1FM. If no packets are shown the sender has not sent any weather packets the latest 10 day(s).
| Time | Temp. | Humidity | Pressure | Rain* | Wind** | Luminosity | Snow |
|---|---|---|---|---|---|---|---|
| 1777573896 | 7.78° C | 68% | 910.8 hPa | - | - | - | - |
| 1777572996 | 7.78° C | 67% | 910.9 hPa | - | - | - | - |
| 1777572096 | 8.33° C | 67% | 910.6 hPa | - | - | - | - |
| 1777571196 | 8.33° C | 67% | 910.8 hPa | - | - | - | - |
| 1777570296 | 8.33° C | 67% | 910.6 hPa | - | - | - | - |
| 1777569395 | 8.89° C | 66% | 910.7 hPa | - | - | - | - |
| 1777568495 | 9.44° C | 66% | 910.6 hPa | - | - | - | - |
| 1777567595 | 9.44° C | 65% | 910.3 hPa | - | - | - | - |
| 1777566695 | 0° C | 64% | 895.7 hPa | - | - | - | - |
| 1777565795 | 10° C | 64% | 909.9 hPa | - | - | - | - |
| 1777564895 | 10.56° C | 64% | 909.8 hPa | - | - | - | - |
| 1777563995 | 10.56° C | 65% | 909.8 hPa | - | - | - | - |
| 1777563094 | 10.56° C | 67% | 909.9 hPa | - | - | - | - |
| 1777562194 | 10° C | 69% | 909.9 hPa | - | - | - | - |
| 1777561294 | 10.56° C | 68% | 910.1 hPa | - | - | - | - |
| 1777560394 | 10.56° C | 67% | 910.2 hPa | - | - | - | - |
| 1777559494 | 10.56° C | 65% | 910.4 hPa | - | - | - | - |
| 1777558594 | 10.56° C | 64% | 910.3 hPa | - | - | - | - |
| 1777557694 | 10.56° C | 64% | 910.4 hPa | - | - | - | - |
| 1777556793 | 10.56° C | 63% | 910.4 hPa | - | - | - | - |
| 1777555893 | 10.56° C | 63% | 910.2 hPa | - | - | - | - |
| 1777554993 | 11.11° C | 63% | 910.4 hPa | - | - | - | - |
| 1777554093 | 11.11° C | 64% | 910.7 hPa | - | - | - | - |
| 1777553193 | 10.56° C | 65% | 910.8 hPa | - | - | - | - |
| 1777552293 | 11.11° C | 66% | 911.1 hPa | - | - | - | - |
* Rain since midnight (hover to see other rain measurements)
** Current wind speed in m/s (hover to see current wind gust speed)